Pike Road, Alabama
Current Conditions -  °F | °C
As of 1:58 PM on Thursday 29 Jan 2015 (Local Time) from KMXF Reporting Station
Clear Clear  
Wind Chill: 69°   Ceiling: Unl
Heat Index: 69°   Visibility: 10mi
Dew Point: 43°   Wind: 9mph
Humidity: 39%   Direction: 200°SSW
Pressure: 30.16"   Gusts: NA
Location:  32.28°N, 86.1°W
Report Text: KMXF 291958Z AUTO 20008KT 10SM CLR 21/06 A3016 RMK AO2 SLP216 T02060060
Loading
Personal Weather Stations






























Interactive Weather Map New forecast layout! Learn more

10-Day Weather Forecast

Advertisements
Track Severe Weather on mobile